Time;durP1;ratioP1;P1;durP2;ratioP2;P2;SDS_P1;SDS_P2;PMS_P1;PMS_P2;Temp;Humidity;BMP_temperature;BMP_pressure;BME280_temperature;BME280_humidity;BME280_pressure;Samples;Min_cycle;Max_cycle;Signal;HPM_P1;HPM_P2
2021/05/14 00:00:49;;;;;;;1.60;1.50;;;;;;;10.70;93.10;99466.94;5071329;28;20626;-78
2021/05/14 00:03:15;;;;;;;1.90;1.80;;;;;;;10.67;93.55;99462.94;5071519;28;20177;-77
2021/05/14 00:05:40;;;;;;;1.70;1.60;;;;;;;10.63;93.68;99466.69;5071108;28;20220;-77
2021/05/14 00:08:06;;;;;;;1.20;1.10;;;;;;;10.58;93.79;99461.44;5070979;28;20220;-77
2021/05/14 00:10:38;;;;;;;2.33;2.23;;;;;;;10.58;94.35;99475.09;5071074;28;20173;-77
2021/05/14 00:13:04;;;;;;;1.80;1.70;;;;;;;10.53;94.56;99456.97;5071323;28;20208;-78
2021/05/14 00:15:29;;;;;;;2.00;1.90;;;;;;;10.54;94.58;99464.03;5071107;28;20171;-81
2021/05/14 00:17:55;;;;;;;4.97;3.50;;;;;;;10.54;95.08;99458.56;5069646;28;20206;-80
2021/05/14 00:20:20;;;;;;;2.10;1.90;;;;;;;10.54;95.04;99458.56;5069775;28;20214;-78
2021/05/14 00:22:46;;;;;;;2.10;1.90;;;;;;;10.56;95.49;99450.88;5074139;28;20166;-76
2021/05/14 00:25:12;;;;;;;1.80;1.60;;;;;;;10.55;95.77;99451.97;5075463;28;20167;-79
2021/05/14 00:27:38;;;;;;;2.07;1.97;;;;;;;10.54;95.70;99449.56;5075070;28;20173;-77
2021/05/14 00:30:06;;;;;;;1.97;1.87;;;;;;;10.55;95.28;99449.25;5074881;28;20206;-77
2021/05/14 00:32:31;;;;;;;1.70;1.57;;;;;;;10.55;95.64;99446.50;5074628;28;20261;-77
2021/05/14 00:34:57;;;;;;;1.40;1.30;;;;;;;10.57;95.62;99448.94;5074863;28;20300;-79
2021/05/14 00:37:22;;;;;;;2.60;2.40;;;;;;;10.59;95.76;99443.94;5074716;28;20170;-80
2021/05/14 00:39:47;;;;;;;2.67;2.00;;;;;;;10.62;94.74;99448.72;5074615;28;20204;-78
2021/05/14 00:42:13;;;;;;;2.50;2.30;;;;;;;10.67;95.41;99446.56;5074707;28;20308;-79
2021/05/14 00:44:45;;;;;;;2.43;2.23;;;;;;;10.73;94.93;99449.91;5074850;28;20475;-79
2021/05/14 00:47:11;;;;;;;1.53;1.43;;;;;;;10.72;94.66;99446.38;5074675;28;20193;-78
2021/05/14 00:49:39;;;;;;;2.23;2.03;;;;;;;10.64;94.53;99446.44;5073243;28;20236;-78
2021/05/14 00:52:06;;;;;;;2.50;2.30;;;;;;;10.56;94.88;99448.13;5073453;28;20171;-77
2021/05/14 00:54:32;;;;;;;2.27;2.07;;;;;;;10.52;95.18;99440.91;5074534;28;20165;-77
2021/05/14 00:56:58;;;;;;;1.90;1.80;;;;;;;10.47;95.57;99447.41;5074478;28;20167;-77
2021/05/14 00:59:25;;;;;;;2.90;2.60;;;;;;;10.45;95.86;99459.78;5074541;28;20151;-79
2021/05/14 01:01:50;;;;;;;2.43;2.03;;;;;;;10.44;96.19;99450.81;5074463;28;20680;-77
2021/05/14 01:04:15;;;;;;;2.43;2.23;;;;;;;10.38;95.91;99455.66;5073061;28;20196;-76
2021/05/14 01:06:41;;;;;;;2.87;2.67;;;;;;;10.36;95.92;99449.72;5074241;28;20175;-76
2021/05/14 01:09:06;;;;;;;2.77;2.57;;;;;;;10.33;95.89;99452.34;5074041;28;20201;-75
2021/05/14 01:11:33;;;;;;;3.13;2.93;;;;;;;10.31;96.08;99449.94;5074062;28;20505;-79
2021/05/14 01:13:58;;;;;;;2.60;2.40;;;;;;;10.32;95.76;99453.47;5073768;28;20559;-78
2021/05/14 01:16:24;;;;;;;4.57;2.90;;;;;;;10.31;96.16;99454.59;5074266;28;20271;-80
2021/05/14 01:18:50;;;;;;;2.70;2.50;;;;;;;10.31;96.18;99457.34;5074263;28;20190;-79
2021/05/14 01:21:16;;;;;;;2.50;2.30;;;;;;;10.31;96.09;99457.34;5074128;28;20634;-77
2021/05/14 01:23:41;;;;;;;2.57;2.37;;;;;;;10.32;96.37;99453.47;5073993;28;20178;-79
2021/05/14 01:26:14;;;;;;;3.23;3.03;;;;;;;10.29;96.45;99451.41;5074507;28;20198;-78
2021/05/14 01:28:40;;;;;;;3.43;2.60;;;;;;;10.27;96.19;99450.94;5073575;28;20371;-79
2021/05/14 01:31:06;;;;;;;2.47;2.27;;;;;;;10.25;96.46;99450.47;5073763;28;20518;-76
2021/05/14 01:33:32;;;;;;;2.70;2.50;;;;;;;10.25;96.69;99455.94;5073005;28;20198;-77
2021/05/14 01:35:58;;;;;;;2.70;2.50;;;;;;;10.25;96.43;99453.19;5073555;28;20232;-79
2021/05/14 01:38:25;;;;;;;3.33;3.00;;;;;;;10.22;96.52;99451.13;5073409;28;20179;-78
2021/05/14 01:40:50;;;;;;;5.77;3.53;;;;;;;10.15;96.17;99459.84;5073774;28;20163;-77
2021/05/14 01:43:15;;;;;;;2.50;2.40;;;;;;;10.10;96.70;99458.09;5073726;28;20182;-79
2021/05/14 01:45:41;;;;;;;2.97;2.77;;;;;;;10.08;96.83;99452.16;5073408;28;20181;-78
2021/05/14 01:48:06;;;;;;;2.40;2.20;;;;;;;10.09;96.88;99451.03;5073286;28;20550;-78
2021/05/14 01:50:32;;;;;;;3.37;3.07;;;;;;;10.06;96.87;99448.19;5073159;28;20179;-75
2021/05/14 01:52:57;;;;;;;2.93;2.33;;;;;;;10.06;96.76;99448.97;5073647;28;20177;-78
2021/05/14 01:55:23;;;;;;;2.50;2.30;;;;;;;10.04;96.86;99450.44;5073446;28;20236;-79
2021/05/14 01:57:49;;;;;;;2.67;2.47;;;;;;;10.03;97.13;99441.47;5072824;28;20183;-79
2021/05/14 02:00:15;;;;;;;2.20;2.00;;;;;;;10.02;96.85;99437.13;5073315;28;20197;-77
2021/05/14 02:02:41;;;;;;;2.50;2.30;;;;;;;9.99;97.29;99442.47;5073262;28;20175;-79
2021/05/14 02:05:07;;;;;;;1.97;1.87;;;;;;;9.99;97.39;99450.66;5073580;28;20189;-77
2021/05/14 02:07:32;;;;;;;2.33;2.07;;;;;;;9.97;97.48;99442.78;5073277;28;20178;-80
2021/05/14 02:09:58;;;;;;;2.33;2.23;;;;;;;9.98;97.55;99436.22;5072923;28;20194;-79
2021/05/14 02:12:23;;;;;;;2.40;2.27;;;;;;;9.96;97.30;99441.19;5072798;28;20278;-76
2021/05/14 02:14:49;;;;;;;2.50;2.30;;;;;;;9.95;97.78;99436.06;5073031;28;20173;-79
2021/05/14 02:17:14;;;;;;;2.03;1.90;;;;;;;9.94;97.74;99431.72;5072830;28;20270;-78
2021/05/14 02:19:40;;;;;;;2.40;2.20;;;;;;;9.95;97.94;99436.84;5073051;28;20173;-79
2021/05/14 02:22:05;;;;;;;3.37;3.17;;;;;;;9.96;98.08;99434.91;5073029;28;20171;-79
2021/05/14 02:24:32;;;;;;;3.07;2.77;;;;;;;9.95;98.07;99434.13;5072928;28;20301;-79
2021/05/14 02:26:57;;;;;;;3.37;2.37;;;;;;;9.93;98.07;99436.38;5072743;28;20167;-80
2021/05/14 02:29:23;;;;;;;2.83;2.63;;;;;;;9.90;98.42;99428.88;5072487;28;20206;-78
2021/05/14 02:31:48;;;;;;;2.20;2.10;;;;;;;9.90;98.40;99439.00;5071227;28;20223;-77
2021/05/14 02:34:14;;;;;;;2.37;2.17;;;;;;;9.88;98.50;99422.94;5072482;28;20175;-79
2021/05/14 02:36:39;;;;;;;3.13;2.13;;;;;;;9.87;98.54;99432.28;5072277;28;20198;-78
2021/05/14 02:39:07;;;;;;;2.77;2.57;;;;;;;9.91;98.51;99427.75;5072490;28;20200;-76
2021/05/14 02:41:34;;;;;;;2.57;2.37;;;;;;;9.91;98.37;99424.22;5072381;28;20174;-77
2021/05/14 02:43:59;;;;;;;2.67;2.33;;;;;;;9.93;98.47;99433.66;5072446;28;20171;-78
2021/05/14 02:46:25;;;;;;;2.77;2.57;;;;;;;9.99;98.42;99429.63;5072235;28;20578;-79
2021/05/14 02:48:50;;;;;;;4.80;2.17;;;;;;;10.04;98.35;99420.44;5071869;28;20202;-77
2021/05/14 02:51:15;;;;;;;2.30;2.20;;;;;;;10.05;97.86;99430.22;5070732;28;20185;-80
2021/05/14 02:53:41;;;;;;;2.40;2.20;;;;;;;10.08;97.77;99427.59;5072152;28;20216;-78
2021/05/14 02:56:06;;;;;;;3.53;2.67;;;;;;;10.09;97.89;99429.19;5071942;28;20509;-80
2021/05/14 02:58:32;;;;;;;2.77;2.57;;;;;;;10.12;97.71;99430.47;5070291;28;20191;-78
2021/05/14 03:00:57;;;;;;;2.70;2.50;;;;;;;10.11;97.60;99432.41;5071888;28;20190;-79
2021/05/14 03:03:22;;;;;;;2.30;2.07;;;;;;;10.13;97.72;99427.44;5070572;28;20182;-80
2021/05/14 03:05:48;;;;;;;2.60;2.40;;;;;;;10.16;97.38;99433.34;5070509;28;20197;-77
2021/05/14 03:08:13;;;;;;;2.30;2.10;;;;;;;10.13;96.97;99430.16;5071776;28;20225;-78
2021/05/14 03:10:38;;;;;;;2.40;2.20;;;;;;;10.13;96.94;99432.88;5071845;28;20183;-77
2021/05/14 03:13:05;;;;;;;3.30;3.00;;;;;;;10.13;97.45;99421.97;5071717;28;20186;-78
2021/05/14 03:15:30;;;;;;;2.20;2.00;;;;;;;10.10;97.17;99427.28;5071453;28;20186;-79
2021/05/14 03:17:56;;;;;;;3.00;2.73;;;;;;;10.09;97.08;99423.75;5071377;28;20175;-79
2021/05/14 03:20:21;;;;;;;3.07;2.77;;;;;;;10.09;97.61;99431.94;5071458;28;20657;-77
2021/05/14 03:22:46;;;;;;;3.17;2.87;;;;;;;10.07;97.69;99430.66;5071499;28;20560;-78
2021/05/14 03:25:12;;;;;;;4.07;3.77;;;;;;;10.06;97.78;99443.53;5070237;28;20664;-76
2021/05/14 03:27:38;;;;;;;4.13;3.03;;;;;;;10.08;97.70;99437.72;5071863;28;20634;-79
2021/05/14 03:30:05;;;;;;;3.40;2.93;;;;;;;10.04;98.02;99436.81;5071787;28;20573;-76
2021/05/14 03:32:31;;;;;;;2.70;2.47;;;;;;;9.99;98.28;99435.06;5071725;28;20171;-77
2021/05/14 03:34:56;;;;;;;2.90;2.47;;;;;;;9.97;98.23;99441.97;5070608;28;20653;-79
2021/05/14 03:37:22;;;;;;;3.27;2.97;;;;;;;9.92;98.85;99442.97;5071957;28;20197;-78
2021/05/14 03:39:51;;;;;;;2.17;2.07;;;;;;;9.84;99.12;99441.13;5071796;28;20261;-79
2021/05/14 03:42:26;;;;;;;2.90;2.70;;;;;;;9.82;99.77;99440.63;5071771;28;20257;-78
2021/05/14 03:44:52;;;;;;;5.57;3.17;;;;;;;9.79;99.96;99438.56;5072116;28;20303;-78
2021/05/14 03:47:18;;;;;;;5.40;3.30;;;;;;;9.82;100.00;99446.09;5071980;28;20170;-75
2021/05/14 03:49:44;;;;;;;3.07;2.63;;;;;;;9.84;100.00;99447.38;5071550;28;20747;-78
2021/05/14 03:52:11;;;;;;;3.70;2.97;;;;;;;9.82;100.00;99448.81;5072130;28;20174;-76
2021/05/14 03:54:38;;;;;;;3.07;2.87;;;;;;;9.82;100.00;99443.34;5072039;28;20178;-75
2021/05/14 03:57:04;;;;;;;2.77;2.57;;;;;;;9.86;100.00;99447.03;5071462;28;20257;-79
2021/05/14 03:59:29;;;;;;;6.27;4.23;;;;;;;9.88;100.00;99447.50;5071964;28;20253;-79
2021/05/14 04:01:56;;;;;;;3.03;2.83;;;;;;;9.92;100.00;99444.91;5072230;28;20179;-77
2021/05/14 04:04:23;;;;;;;3.43;3.17;;;;;;;9.92;100.00;99442.97;5072276;28;20181;-79
2021/05/14 04:06:48;;;;;;;3.70;3.33;;;;;;;9.99;100.00;99442.47;5072051;28;20171;-76
2021/05/14 04:09:18;;;;;;;3.53;3.33;;;;;;;10.02;100.00;99439.88;5072384;28;20232;-76
2021/05/14 04:14:30;;;;;;;5.27;4.90;;;;;;;9.98;99.74;99440.84;5072513;28;20194;-73
2021/05/14 04:17:03;;;;;;;3.13;2.83;;;;;;;9.93;99.66;99446.50;5071959;28;20185;-78
2021/05/14 04:19:28;;;;;;;2.90;2.67;;;;;;;9.88;99.90;99442.06;5070844;28;20182;-77
2021/05/14 04:21:55;;;;;;;3.37;2.97;;;;;;;9.90;100.00;99436.25;5070976;28;20212;-78
2021/05/14 04:24:21;;;;;;;4.77;4.37;;;;;;;9.89;100.00;99443.66;5072435;28;20177;-77
2021/05/14 04:26:48;;;;;;;2.97;2.77;;;;;;;9.89;100.00;99443.66;5072219;28;20186;-74
2021/05/14 04:29:14;;;;;;;5.63;3.87;;;;;;;9.88;100.00;99447.50;5071592;28;20206;-77
2021/05/14 04:31:42;;;;;;;5.87;4.10;;;;;;;9.90;100.00;99447.16;5072478;28;20178;-80
2021/05/14 04:34:07;;;;;;;3.97;3.67;;;;;;;9.93;100.00;99454.69;5072176;28;20171;-77
2021/05/14 04:36:32;;;;;;;4.10;3.80;;;;;;;9.91;100.00;99446.84;5072437;28;20301;-76
2021/05/14 04:38:58;;;;;;;4.50;4.10;;;;;;;9.89;100.00;99443.66;5072707;28;20257;-79
2021/05/14 04:41:23;;;;;;;5.20;4.63;;;;;;;9.91;100.00;99454.22;5072361;28;20228;-77
2021/05/14 04:43:49;;;;;;;6.00;5.43;;;;;;;9.88;100.00;99452.16;5073154;28;20664;-77
2021/05/14 04:46:14;;;;;;;5.13;4.70;;;;;;;9.87;100.00;99445.91;5072185;28;20466;-77
2021/05/14 04:48:39;;;;;;;5.07;4.67;;;;;;;9.89;100.00;99451.84;5072120;28;20209;-77
2021/05/14 04:51:05;;;;;;;8.07;5.40;;;;;;;9.91;100.00;99457.75;5070644;28;20185;-77
2021/05/14 04:53:31;;;;;;;9.37;5.43;;;;;;;9.90;100.00;99458.09;5072362;28;20402;-77
2021/05/14 04:55:57;;;;;;;5.97;5.30;;;;;;;9.91;100.00;99462.41;5072486;28;20227;-74
2021/05/14 04:58:22;;;;;;;5.53;4.97;;;;;;;9.96;100.00;99467.66;5072126;28;20190;-75
2021/05/14 05:00:47;;;;;;;6.37;5.60;;;;;;;10.01;100.00;99459.31;5072037;28;20646;-74
2021/05/14 05:03:13;;;;;;;4.53;4.13;;;;;;;10.03;100.00;99466.03;5072355;28;20178;-79
2021/05/14 05:05:39;;;;;;;8.37;5.67;;;;;;;10.04;100.00;99469.53;5072287;28;20166;-79
2021/05/14 05:08:04;;;;;;;6.70;6.10;;;;;;;10.05;100.00;99469.22;5073485;28;20178;-79
2021/05/14 05:10:30;;;;;;;6.90;6.30;;;;;;;10.08;100.00;99467.75;5078334;28;20217;-80
2021/05/14 05:12:55;;;;;;;6.83;6.13;;;;;;;10.08;100.00;99470.47;5074981;28;20270;-78
2021/05/14 05:15:20;;;;;;;7.53;6.97;;;;;;;10.01;100.00;99467.50;5074617;28;20190;-80
2021/05/14 05:17:45;;;;;;;7.00;6.40;;;;;;;9.92;100.00;99466.72;5074494;28;20182;-79
2021/05/14 05:20:11;;;;;;;7.40;6.73;;;;;;;9.96;100.00;99470.38;5074705;28;20228;-80
2021/05/14 05:22:37;;;;;;;7.83;6.80;;;;;;;9.96;100.00;99471.19;5072869;28;20206;-78
2021/05/14 05:25:03;;;;;;;8.87;6.40;;;;;;;10.01;100.00;99460.09;5073078;28;20228;-79
2021/05/14 05:27:29;;;;;;;7.33;6.60;;;;;;;10.00;100.00;99474.88;5074123;28;20540;-79
2021/05/14 05:29:54;;;;;;;6.70;6.10;;;;;;;9.95;100.00;99468.78;5073948;28;20206;-80
2021/05/14 05:32:19;;;;;;;5.63;5.13;;;;;;;9.97;100.00;99472.00;5074082;28;20202;-80
2021/05/14 05:34:45;;;;;;;9.13;7.57;;;;;;;9.95;100.00;99464.13;5074365;28;20259;-78
2021/05/14 05:37:10;;;;;;;6.97;6.37;;;;;;;9.97;100.00;99467.31;5072604;28;20171;-78
2021/05/14 05:39:36;;;;;;;8.03;7.23;;;;;;;10.04;100.00;99473.06;5073753;28;20163;-78
2021/05/14 05:42:01;;;;;;;6.77;6.17;;;;;;;10.00;100.00;99472.16;5074149;28;20181;-78
2021/05/14 05:44:26;;;;;;;7.40;6.77;;;;;;;10.10;100.00;99481.84;5074096;28;20514;-78
2021/05/14 05:46:52;;;;;;;6.57;5.97;;;;;;;10.14;100.00;99480.09;5073397;28;20258;-73
2021/05/14 05:49:18;;;;;;;6.70;6.10;;;;;;;10.20;100.00;99481.47;5071915;28;20198;-72
2021/05/14 05:51:43;;;;;;;7.60;6.57;;;;;;;10.27;100.00;99486.41;5073466;28;20661;-72
2021/05/14 05:54:09;;;;;;;5.50;5.00;;;;;;;10.25;99.77;99497.66;5072078;28;20193;-72
2021/05/14 05:56:34;;;;;;;11.70;6.20;;;;;;;10.26;99.40;99498.47;5073799;28;20185;-72
2021/05/14 05:59:00;;;;;;;8.73;5.30;;;;;;;10.31;99.08;99495.56;5072864;28;20182;-79
2021/05/14 06:01:25;;;;;;;7.27;6.57;;;;;;;10.33;98.97;99496.81;5072870;28;20270;-79
2021/05/14 06:03:50;;;;;;;8.60;5.10;;;;;;;10.36;98.81;99498.09;5072728;28;20420;-79
2021/05/14 06:06:15;;;;;;;6.30;5.70;;;;;;;10.45;98.80;99493.38;5072745;28;20194;-80
2021/05/14 06:08:41;;;;;;;6.53;5.93;;;;;;;10.55;98.80;99500.34;5072588;28;20254;-80
2021/05/14 06:11:06;;;;;;;6.30;5.70;;;;;;;10.54;98.82;99505.00;5071389;28;20166;-79
2021/05/14 06:13:33;;;;;;;6.63;6.13;;;;;;;10.61;98.42;99502.53;5072634;28;20245;-80
2021/05/14 06:16:00;;;;;;;7.00;5.93;;;;;;;10.65;97.61;99508.94;5072446;28;20162;-79
2021/05/14 06:18:27;;;;;;;8.13;6.80;;;;;;;10.70;97.58;99508.75;5070733;28;20182;-79
2021/05/14 06:20:53;;;;;;;7.30;6.70;;;;;;;10.68;97.34;99519.19;5072426;28;20190;-80
2021/05/14 06:23:18;;;;;;;7.97;7.37;;;;;;;10.70;97.24;99516.09;5072378;28;20271;-79
2021/05/14 06:25:44;;;;;;;7.07;6.33;;;;;;;10.67;96.82;99517.56;5072284;28;20177;-80
2021/05/14 06:28:18;;;;;;;8.37;7.50;;;;;;;10.63;96.52;99522.13;5071025;28;20217;-80
2021/05/14 06:30:43;;;;;;;7.03;6.27;;;;;;;10.71;96.71;99521.25;5072287;28;20622;-80
2021/05/14 06:33:08;;;;;;;6.47;5.93;;;;;;;10.79;96.74;99526.97;5072690;28;20205;-79
2021/05/14 06:35:35;;;;;;;6.70;6.00;;;;;;;10.78;95.94;99519.91;5072378;28;20175;-84
2021/05/14 06:38:00;;;;;;;12.03;7.93;;;;;;;10.77;96.58;99526.50;5072025;28;20233;-78
2021/05/14 06:40:25;;;;;;;8.43;7.63;;;;;;;10.79;96.54;99533.22;5072354;28;20522;-78
2021/05/14 06:42:51;;;;;;;7.77;7.00;;;;;;;10.77;96.16;99527.31;5072176;28;20210;-78
2021/05/14 06:45:16;;;;;;;7.93;7.13;;;;;;;10.79;96.50;99532.44;5071882;28;20674;-78
2021/05/14 06:47:41;;;;;;;6.50;5.90;;;;;;;10.81;96.55;99535.63;5071862;28;20181;-78
2021/05/14 06:50:07;;;;;;;7.97;7.23;;;;;;;10.79;96.18;99532.44;5071858;28;20301;-78
2021/05/14 06:52:35;;;;;;;8.23;7.10;;;;;;;10.82;96.51;99531.75;5071817;28;20221;-78
2021/05/14 06:55:03;;;;;;;8.10;7.30;;;;;;;10.84;95.92;99540.41;5071733;28;20202;-78
2021/05/14 06:57:28;;;;;;;8.83;8.00;;;;;;;10.92;96.38;99545.03;5071603;28;20689;-78
2021/05/14 06:59:53;;;;;;;10.93;8.67;;;;;;;10.91;95.98;99544.22;5069899;28;20220;-78
2021/05/14 07:02:19;;;;;;;10.57;6.77;;;;;;;11.04;96.66;99542.34;5071462;28;20646;-79
2021/05/14 07:04:44;;;;;;;10.23;8.37;;;;;;;11.08;94.92;99542.44;5071693;28;20178;-77
2021/05/14 07:07:09;;;;;;;10.37;9.33;;;;;;;10.88;95.51;99544.09;5062034;28;20182;-78
2021/05/14 07:09:35;;;;;;;10.63;9.67;;;;;;;11.05;95.21;99548.59;5056665;28;20227;-78
2021/05/14 07:12:01;;;;;;;8.40;7.33;;;;;;;11.10;94.70;99545.66;5051435;28;20182;-78
2021/05/14 07:14:26;;;;;;;9.27;8.37;;;;;;;11.12;93.68;99552.38;5051381;28;20206;-77
2021/05/14 07:16:52;;;;;;;9.40;8.40;;;;;;;11.20;94.60;99553.44;5051312;28;20225;-77
2021/05/14 07:19:17;;;;;;;9.07;7.37;;;;;;;11.24;93.16;99560.63;5051306;28;20580;-78
2021/05/14 07:21:43;;;;;;;9.60;8.50;;;;;;;11.25;92.53;99553.22;5051327;28;20174;-77
2021/05/14 07:24:08;;;;;;;10.47;8.00;;;;;;;11.32;93.09;99564.41;5051355;28;20175;-77
2021/05/14 07:26:34;;;;;;;11.23;9.17;;;;;;;11.29;92.26;99554.16;5069947;28;20208;-77
2021/05/14 07:29:02;;;;;;;9.67;8.70;;;;;;;11.28;91.58;99561.56;5070767;28;20259;-77
2021/05/14 07:31:27;;;;;;;9.77;7.83;;;;;;;11.26;91.94;99550.13;5070554;28;20261;-77
2021/05/14 07:33:53;;;;;;;10.57;9.57;;;;;;;11.30;92.77;99555.75;5070965;28;20505;-76
2021/05/14 07:36:18;;;;;;;9.50;8.53;;;;;;;11.33;92.37;99560.53;5070952;28;20751;-77
2021/05/14 07:38:44;;;;;;;14.47;10.47;;;;;;;11.41;92.16;99561.56;5070739;28;20276;-73
2021/05/14 07:41:10;;;;;;;11.07;8.77;;;;;;;11.31;91.75;99557.34;5070918;28;20547;-77
2021/05/14 07:43:36;;;;;;;9.30;7.67;;;;;;;11.41;91.64;99559.63;5069573;28;20548;-76
2021/05/14 07:46:01;;;;;;;9.87;8.87;;;;;;;11.43;92.28;99562.84;5070937;28;20170;-77
2021/05/14 07:48:28;;;;;;;9.37;8.43;;;;;;;11.50;91.52;99563.06;5070579;28;20702;-76
2021/05/14 07:50:53;;;;;;;10.17;8.30;;;;;;;11.57;90.62;99570.72;5070923;28;20484;-75
2021/05/14 07:53:19;;;;;;;8.50;7.30;;;;;;;11.53;89.37;99573.34;5070634;28;20178;-75
2021/05/14 07:55:44;;;;;;;9.50;7.87;;;;;;;11.63;89.81;99570.16;5070659;28;20178;-76
2021/05/14 07:58:10;;;;;;;10.80;9.73;;;;;;;11.67;88.52;99569.47;5070431;28;20286;-73
2021/05/14 08:00:36;;;;;;;10.27;9.30;;;;;;;11.67;87.21;99573.03;5070562;28;20762;-77
2021/05/14 08:03:01;;;;;;;8.43;7.73;;;;;;;11.58;87.76;99569.59;5070795;28;20249;-77
2021/05/14 08:05:27;;;;;;;8.90;8.03;;;;;;;11.70;88.57;99571.53;5070646;28;20684;-77
2021/05/14 08:08:09;;;;;;;9.13;8.23;;;;;;;11.68;87.82;99574.63;5070421;28;20182;-77
2021/05/14 08:10:34;;;;;;;7.23;6.53;;;;;;;11.58;87.09;99577.81;5070418;28;20674;-77
2021/05/14 08:13:00;;;;;;;10.53;8.23;;;;;;;11.69;88.11;99573.47;5070081;28;20175;-75
2021/05/14 08:15:25;;;;;;;9.87;8.17;;;;;;;11.81;87.75;99576.25;5070038;28;20634;-77
2021/05/14 08:17:51;;;;;;;10.60;8.30;;;;;;;11.75;86.55;99577.59;5069895;28;20174;-77
2021/05/14 08:20:17;;;;;;;8.83;7.93;;;;;;;11.78;87.59;99576.13;5070150;28;20181;-77
2021/05/14 08:22:42;;;;;;;9.40;8.30;;;;;;;11.87;86.40;99577.66;5069962;28;20182;-75
2021/05/14 08:25:10;;;;;;;8.63;7.17;;;;;;;12.12;88.29;99578.44;5069995;28;20266;-77
2021/05/14 08:27:35;;;;;;;12.10;8.70;;;;;;;12.36;86.86;99574.88;5070057;28;20699;-77
2021/05/14 08:30:00;;;;;;;8.80;7.90;;;;;;;12.47;85.78;99572.47;5065966;28;20218;-77
2021/05/14 08:32:26;;;;;;;9.57;8.63;;;;;;;12.74;85.55;99574.47;5069078;28;20174;-77
2021/05/14 08:34:51;;;;;;;8.77;7.27;;;;;;;12.65;83.96;99573.00;5049062;28;20179;-76
2021/05/14 08:37:16;;;;;;;7.13;6.43;;;;;;;12.90;83.78;99571.00;5062477;28;20657;-75
2021/05/14 08:39:41;;;;;;;6.90;6.03;;;;;;;12.81;82.89;99574.66;5065997;28;20266;-77
2021/05/14 08:42:07;;;;;;;9.07;8.27;;;;;;;12.78;83.00;99582.78;5050292;28;20232;-76
2021/05/14 08:44:32;;;;;;;7.13;6.53;;;;;;;12.67;82.76;99578.94;5052431;28;20186;-76
2021/05/14 08:46:58;;;;;;;7.83;7.03;;;;;;;12.76;82.64;99585.09;5062717;28;20186;-78
2021/05/14 08:49:23;;;;;;;7.90;7.17;;;;;;;12.69;83.53;99577.44;5073488;28;20695;-76
2021/05/14 08:51:50;;;;;;;8.70;6.93;;;;;;;12.67;83.64;99579.72;5060537;28;20190;-77
2021/05/14 08:54:16;;;;;;;9.00;7.37;;;;;;;12.57;83.50;99582.94;5056141;28;20278;-76
2021/05/14 08:56:41;;;;;;;9.00;7.13;;;;;;;12.60;83.26;99584.22;5073469;28;20340;-77
2021/05/14 08:59:06;;;;;;;7.47;6.80;;;;;;;12.57;83.19;99582.16;5068894;28;20206;-76
2021/05/14 09:01:33;;;;;;;6.87;6.27;;;;;;;12.70;83.07;99567.28;5071351;28;20269;-77
2021/05/14 09:04:02;;;;;;;7.57;6.60;;;;;;;12.77;83.56;99576.50;5073714;28;20185;-78
2021/05/14 09:06:33;;;;;;;6.40;5.90;;;;;;;12.75;82.87;99572.53;5073653;28;20170;-77
2021/05/14 09:09:01;;;;;;;8.23;7.43;;;;;;;12.92;83.73;99572.25;5073505;28;20268;-77
2021/05/14 09:11:48;;;;;;;10.53;7.83;;;;;;;12.95;81.75;99579.75;5072306;28;20639;-77
2021/05/14 09:14:34;;;;;;;7.50;6.80;;;;;;;13.05;81.65;99578.47;5073588;28;20175;-77
2021/05/14 09:17:26;;;;;;;6.53;5.97;;;;;;;13.17;81.30;99580.38;5073621;28;20538;-77
2021/05/14 09:19:52;;;;;;;6.77;6.10;;;;;;;13.40;80.51;99578.69;5073840;28;20193;-79
2021/05/14 09:22:24;;;;;;;6.47;5.87;;;;;;;13.35;80.22;99567.97;5073997;28;20689;-79
2021/05/14 09:24:58;;;;;;;7.77;7.07;;;;;;;13.38;80.53;99572.75;5073645;28;20630;-76
2021/05/14 09:27:23;;;;;;;7.33;6.63;;;;;;;13.40;79.93;99573.19;5073315;28;20200;-76
2021/05/14 09:29:48;;;;;;;6.97;6.37;;;;;;;13.57;79.95;99566.56;5073160;28;20198;-76
2021/05/14 09:32:23;;;;;;;9.73;6.03;;;;;;;13.77;78.43;99564.75;5073366;28;20174;-76
2021/05/14 09:34:50;;;;;;;7.63;6.87;;;;;;;13.78;78.43;99569.06;5073426;28;20178;-76
2021/05/14 09:37:17;;;;;;;6.87;6.27;;;;;;;13.81;78.04;99568.38;5073214;28;20183;-75
2021/05/14 09:39:43;;;;;;;5.83;5.23;;;;;;;13.80;77.35;99569.50;5073061;28;20178;-75
2021/05/14 09:42:09;;;;;;;7.00;6.37;;;;;;;13.79;77.47;99573.41;5073168;28;20209;-77
2021/05/14 09:44:35;;;;;;;5.93;5.33;;;;;;;13.70;79.23;99568.09;5073127;28;20577;-75
2021/05/14 09:47:00;;;;;;;5.97;5.47;;;;;;;13.72;77.17;99574.00;5073191;28;20253;-76
2021/05/14 09:49:29;;;;;;;5.50;5.03;;;;;;;13.77;76.91;99572.97;5073130;28;20277;-77
2021/05/14 09:52:05;;;;;;;6.17;5.20;;;;;;;13.82;75.77;99567.22;5073031;28;20508;-76
2021/05/14 09:54:37;;;;;;;6.07;5.57;;;;;;;13.97;75.57;99564.44;5071676;28;20224;-77
2021/05/14 09:57:19;;;;;;;5.93;5.43;;;;;;;14.14;75.04;99571.53;5071945;28;20175;-79
2021/05/14 09:59:49;;;;;;;5.90;5.40;;;;;;;14.15;73.58;99564.06;5071276;28;20519;-77
2021/05/14 10:02:37;;;;;;;5.00;4.50;;;;;;;14.19;74.21;99564.97;5072747;28;20479;-78
2021/05/14 10:05:04;;;;;;;5.37;4.87;;;;;;;14.35;76.46;99564.94;5071427;28;20684;-78
2021/05/14 10:07:32;;;;;;;5.93;5.33;;;;;;;14.40;72.75;99570.94;5072657;28;20170;-77
2021/05/14 10:10:01;;;;;;;6.53;5.33;;;;;;;14.28;72.53;99571.84;5072636;28;20228;-75
2021/05/14 10:12:27;;;;;;;5.80;5.30;;;;;;;14.30;72.77;99574.25;5071288;28;20561;-77
2021/05/14 10:14:53;;;;;;;5.37;4.87;;;;;;;14.24;72.92;99568.22;5072606;28;20253;-79
2021/05/14 10:17:19;;;;;;;5.30;4.80;;;;;;;14.35;73.16;99565.75;5072607;28;20657;-77
2021/05/14 10:19:46;;;;;;;5.50;5.00;;;;;;;14.30;71.67;99564.03;5071083;28;20209;-78
2021/05/14 10:22:13;;;;;;;7.07;5.43;;;;;;;14.24;71.71;99567.44;5072279;28;20198;-77
2021/05/14 10:24:46;;;;;;;4.83;4.40;;;;;;;14.28;72.73;99566.34;5070143;28;20189;-78
2021/05/14 10:27:25;;;;;;;4.37;3.87;;;;;;;14.43;71.88;99552.94;5072054;28;20224;-77
2021/05/14 10:29:53;;;;;;;6.73;5.43;;;;;;;14.39;71.06;99563.84;5068248;28;20202;-78
2021/05/14 10:32:43;;;;;;;3.63;3.27;;;;;;;14.41;64.30;99567.03;5072014;28;20171;-77
2021/05/14 10:35:09;;;;;;;3.43;3.13;;;;;;;14.49;62.72;99557.03;5066738;28;20179;-77
2021/05/14 10:37:52;;;;;;;3.70;3.40;;;;;;;14.59;64.60;99557.25;5070315;28;20167;-78
2021/05/14 10:40:30;;;;;;;3.40;3.07;;;;;;;14.69;64.74;99555.91;5069005;28;20244;-75
2021/05/14 10:43:32;;;;;;;4.37;3.57;;;;;;;14.88;66.14;99558.66;5056754;28;20202;-76
2021/05/14 10:46:03;;;;;;;2.63;2.43;;;;;;;14.78;66.43;99561.19;5047545;28;20190;-78
2021/05/14 10:48:28;;;;;;;5.10;3.40;;;;;;;14.77;66.63;99551.38;5071789;28;20634;-77
2021/05/14 10:50:55;;;;;;;3.03;2.73;;;;;;;14.66;66.20;99548.38;5072019;28;20224;-76
2021/05/14 10:53:26;;;;;;;5.47;3.33;;;;;;;14.54;65.09;99548.50;5071907;28;20216;-77
2021/05/14 10:55:52;;;;;;;3.70;3.40;;;;;;;14.60;65.12;99549.81;5070635;28;20599;-78
2021/05/14 10:58:43;;;;;;;3.50;3.10;;;;;;;14.55;67.41;99561.09;5071772;28;20605;-77
2021/05/14 11:01:42;;;;;;;5.87;3.50;;;;;;;14.41;66.99;99561.53;5071443;28;20181;-73
2021/05/14 11:04:13;;;;;;;3.23;2.93;;;;;;;14.32;67.87;99554.66;5071493;28;20181;-77
2021/05/14 11:06:43;;;;;;;3.83;3.53;;;;;;;14.24;66.70;99551.75;5070409;28;20235;-73
2021/05/14 11:09:11;;;;;;;1.77;1.67;;;;;;;14.11;67.94;99552.22;5072486;28;20206;-73
2021/05/14 11:12:05;;;;;;;5.47;4.97;;;;;;;13.93;70.85;99552.59;5072676;28;20838;-72
2021/05/14 11:14:43;;;;;;;5.00;4.60;;;;;;;13.96;72.69;99557.38;5071547;28;20170;-72
2021/05/14 11:17:13;;;;;;;3.17;2.87;;;;;;;14.01;71.77;99556.28;5071406;28;20182;-72
2021/05/14 11:19:54;;;;;;;4.10;3.73;;;;;;;13.78;72.44;99563.59;5071205;28;20174;-73
2021/05/14 11:22:22;;;;;;;5.13;4.30;;;;;;;13.73;73.04;99570.13;5071253;28;20174;-73
2021/05/14 11:25:00;;;;;;;4.83;4.43;;;;;;;13.68;74.70;99571.19;5069880;28;20668;-72
2021/05/14 11:27:31;;;;;;;5.00;4.60;;;;;;;13.65;74.34;99569.16;5071147;28;20175;-74
2021/05/14 11:30:08;;;;;;;5.93;4.73;;;;;;;13.59;74.23;99578.00;5070885;28;20294;-77
2021/05/14 11:32:38;;;;;;;4.77;4.33;;;;;;;13.54;74.00;99570.81;5070955;28;20295;-73
2021/05/14 11:35:06;;;;;;;4.93;4.53;;;;;;;13.45;74.79;99578.41;5069742;28;20182;-78
2021/05/14 11:37:56;;;;;;;4.70;4.30;;;;;;;13.41;74.86;99574.78;5070875;28;20171;-78